createdAt,value
2019-01-20T00:00:53.994Z,76.20
2019-01-20T00:03:23.465Z,76.40
2019-01-20T00:05:52.956Z,76.30
2019-01-20T00:08:22.476Z,77.00
2019-01-20T00:10:51.955Z,76.80
2019-01-20T00:13:21.434Z,77.30
2019-01-20T00:15:51.196Z,76.90
2019-01-20T00:18:20.659Z,77.30
2019-01-20T00:20:50.172Z,77.40
2019-01-20T00:23:19.655Z,77.00
2019-01-20T00:25:49.135Z,77.20
2019-01-20T00:28:18.655Z,77.20
2019-01-20T00:30:48.129Z,77.20
2019-01-20T00:33:17.638Z,77.00
2019-01-20T00:35:47.117Z,76.90
2019-01-20T00:38:16.594Z,76.50
2019-01-20T00:40:46.174Z,76.80
2019-01-20T00:43:15.700Z,76.90
2019-01-20T00:45:45.180Z,77.00
2019-01-20T00:48:14.711Z,77.10
2019-01-20T00:50:44.267Z,77.40
2019-01-20T00:53:13.802Z,77.20
2019-01-20T00:55:43.331Z,77.40
2019-01-20T00:58:12.795Z,77.30
2019-01-20T01:00:42.360Z,77.20
2019-01-20T01:03:11.909Z,77.40
2019-01-20T01:05:41.405Z,77.30
2019-01-20T01:08:11.254Z,77.30
2019-01-20T01:10:40.746Z,77.50
2019-01-20T01:13:10.688Z,77.40
2019-01-20T01:15:40.249Z,76.90
2019-01-20T01:18:09.797Z,76.40
2019-01-20T01:20:39.425Z,76.20
2019-01-20T01:23:08.919Z,76.10
2019-01-20T01:25:38.397Z,76.40
2019-01-20T01:28:08.020Z,76.10
2019-01-20T01:30:37.494Z,76.20
2019-01-20T01:33:07.087Z,76.10
2019-01-20T01:35:36.570Z,76.60
2019-01-20T01:38:06.030Z,76.30
2019-01-20T01:40:35.529Z,76.10
2019-01-20T01:43:05.084Z,76.40
2019-01-20T01:45:34.638Z,76.60
2019-01-20T01:48:04.143Z,76.10
2019-01-20T01:50:33.624Z,76.00
2019-01-20T01:53:03.082Z,76.20
2019-01-20T01:55:32.587Z,76.00
2019-01-20T01:58:02.075Z,75.80
2019-01-20T02:00:31.639Z,75.60
2019-01-20T02:03:01.111Z,75.60
2019-01-20T02:05:30.714Z,75.60
2019-01-20T02:08:00.175Z,75.70
2019-01-20T02:10:29.662Z,75.90
2019-01-20T02:12:59.131Z,75.70
2019-01-20T02:15:28.617Z,75.60
2019-01-20T02:17:58.141Z,75.70
2019-01-20T02:20:27.672Z,76.20
2019-01-20T02:22:57.180Z,76.20
2019-01-20T02:25:26.672Z,76.80
2019-01-20T02:27:56.326Z,76.70
2019-01-20T02:30:28.505Z,76.50
2019-01-20T02:32:58.058Z,76.00
2019-01-20T02:35:27.530Z,75.30
2019-01-20T02:37:57.037Z,75.10
2019-01-20T02:40:26.543Z,74.70
2019-01-20T02:42:56.025Z,74.90
2019-01-20T02:45:25.489Z,75.20
2019-01-20T02:47:54.988Z,75.50
2019-01-20T02:50:24.491Z,75.70
2019-01-20T02:52:54.012Z,75.80
2019-01-20T02:55:23.437Z,75.90
2019-01-20T02:57:52.930Z,75.60
2019-01-20T03:00:23.918Z,75.60
2019-01-20T03:02:53.461Z,75.60
2019-01-20T03:05:23.345Z,75.90
2019-01-20T03:07:52.864Z,76.00
2019-01-20T03:10:22.439Z,76.30
2019-01-20T03:12:51.934Z,76.20
2019-01-20T03:15:21.432Z,76.40
2019-01-20T03:17:50.918Z,76.00
2019-01-20T03:20:22.709Z,75.90
2019-01-20T03:22:52.240Z,76.00
2019-01-20T03:25:21.773Z,75.70
2019-01-20T03:27:51.291Z,75.90
2019-01-20T03:30:22.898Z,75.50
2019-01-20T03:32:52.422Z,75.40
2019-01-20T03:35:24.368Z,75.40
2019-01-20T03:37:54.014Z,75.40
2019-01-20T03:40:23.667Z,75.20
2019-01-20T03:42:53.184Z,75.00
2019-01-20T03:45:22.953Z,74.80
2019-01-20T03:47:52.488Z,74.80
2019-01-20T03:50:21.936Z,75.20
2019-01-20T03:52:51.472Z,75.20
2019-01-20T03:55:21.084Z,75.00
2019-01-20T03:57:50.619Z,74.60
2019-01-20T04:00:24.667Z,74.70
2019-01-20T04:02:56.441Z,74.90
2019-01-20T04:05:25.931Z,74.70
2019-01-20T04:07:55.409Z,74.80
2019-01-20T04:10:24.917Z,74.80
2019-01-20T04:12:54.425Z,74.90
2019-01-20T04:15:23.939Z,75.10
2019-01-20T04:17:53.433Z,75.20
2019-01-20T04:20:22.969Z,75.10
2019-01-20T04:22:52.532Z,75.00
2019-01-20T04:25:22.067Z,74.80
2019-01-20T04:27:51.796Z,74.80
2019-01-20T04:30:21.895Z,75.50
2019-01-20T04:32:51.383Z,75.40
2019-01-20T04:35:20.852Z,75.20
2019-01-20T04:37:50.372Z,74.40
2019-01-20T04:40:22.146Z,74.70
2019-01-20T04:42:51.628Z,74.80
2019-01-20T04:45:21.335Z,74.90
2019-01-20T04:47:50.834Z,75.00
2019-01-20T04:50:22.954Z,74.50
2019-01-20T04:52:52.929Z,74.40
2019-01-20T04:55:22.643Z,74.80
2019-01-20T04:57:53.710Z,74.90
2019-01-20T05:00:25.794Z,75.10
2019-01-20T05:02:55.291Z,75.30
2019-01-20T05:05:25.194Z,75.20
2019-01-20T05:07:54.767Z,75.10
2019-01-20T05:10:24.225Z,75.00
2019-01-20T05:12:53.724Z,74.60
2019-01-20T05:15:24.273Z,74.50
2019-01-20T05:17:53.822Z,74.60
2019-01-20T05:20:23.358Z,74.80
2019-01-20T05:22:52.829Z,75.40
2019-01-20T05:25:22.409Z,74.30
2019-01-20T05:27:51.956Z,73.50
2019-01-20T05:30:24.041Z,73.20
2019-01-20T05:32:53.585Z,73.70
2019-01-20T05:35:23.055Z,73.50
2019-01-20T05:37:52.640Z,72.90
2019-01-20T05:40:22.994Z,73.00
2019-01-20T05:42:52.526Z,72.90
2019-01-20T05:45:24.393Z,73.40
2019-01-20T05:47:53.933Z,73.50
2019-01-20T05:50:23.390Z,72.90
2019-01-20T05:52:52.875Z,73.10
2019-01-20T05:55:22.363Z,73.20
2019-01-20T05:57:51.903Z,72.70
2019-01-20T06:00:29.664Z,72.40
2019-01-20T06:02:59.199Z,72.90
2019-01-20T06:05:28.680Z,73.40
2019-01-20T06:07:58.241Z,72.80
2019-01-20T06:10:27.712Z,73.10
2019-01-20T06:12:57.213Z,73.20
2019-01-20T06:15:26.822Z,73.30
2019-01-20T06:17:56.303Z,73.20
2019-01-20T06:20:25.790Z,73.30
2019-01-20T06:22:55.319Z,72.90
2019-01-20T06:25:24.791Z,73.40
2019-01-20T06:27:54.275Z,73.40
2019-01-20T06:30:29.710Z,73.10
2019-01-20T06:32:59.222Z,73.30
2019-01-20T06:35:28.761Z,73.30
2019-01-20T06:37:58.250Z,73.50
2019-01-20T06:40:27.727Z,73.30
2019-01-20T06:43:01.734Z,72.90
2019-01-20T06:45:28.438Z,72.90
2019-01-20T06:47:57.998Z,72.80
2019-01-20T06:50:27.483Z,72.90
2019-01-20T06:52:56.959Z,73.00
2019-01-20T06:55:26.488Z,73.10
2019-01-20T06:57:55.948Z,73.10
2019-01-20T07:00:25.610Z,73.00
2019-01-20T07:02:55.078Z,73.30
2019-01-20T07:05:24.696Z,73.50
2019-01-20T07:07:54.158Z,73.30
2019-01-20T07:10:23.621Z,73.30
2019-01-20T07:12:53.122Z,73.50
2019-01-20T07:15:23.748Z,73.40
2019-01-20T07:17:53.376Z,73.00
2019-01-20T07:20:22.924Z,72.80
2019-01-20T07:22:52.391Z,72.50
2019-01-20T07:25:22.026Z,72.50
2019-01-20T07:27:51.588Z,72.40
2019-01-20T07:30:22.585Z,72.30
2019-01-20T07:32:52.123Z,72.00
2019-01-20T07:35:21.906Z,72.50
2019-01-20T07:37:51.497Z,72.60
2019-01-20T07:40:22.410Z,72.10
2019-01-20T07:42:52.056Z,71.70
2019-01-20T07:45:21.534Z,72.30
2019-01-20T07:47:51.001Z,73.30
2019-01-20T07:50:23.776Z,74.90
2019-01-20T07:52:53.234Z,74.50
2019-01-20T07:55:22.726Z,74.40
2019-01-20T07:57:52.450Z,73.40
2019-01-20T08:00:24.536Z,72.80
2019-01-20T08:02:54.075Z,72.80
2019-01-20T08:05:23.654Z,72.60
2019-01-20T08:07:53.139Z,71.90
2019-01-20T08:10:26.137Z,71.60
2019-01-20T08:12:55.605Z,71.20
2019-01-20T08:15:25.255Z,71.50
2019-01-20T08:17:54.732Z,71.40
2019-01-20T08:20:25.679Z,74.80
2019-01-20T08:22:55.170Z,71.90
2019-01-20T08:25:24.647Z,70.60
2019-01-20T08:27:54.232Z,70.70
2019-01-20T08:30:26.217Z,71.20
2019-01-20T08:32:55.680Z,70.40
2019-01-20T08:35:25.323Z,69.90
2019-01-20T08:37:54.789Z,69.80
2019-01-20T08:40:27.866Z,68.80
2019-01-20T08:42:57.365Z,68.60
2019-01-20T08:45:46.703Z,68.60
2019-01-20T08:48:25.567Z,68.40
2019-01-20T08:50:56.291Z,68.40
2019-01-20T08:53:25.765Z,67.80
2019-01-20T08:55:55.307Z,67.30
2019-01-20T08:58:24.810Z,67.20
2019-01-20T09:00:54.282Z,67.80
2019-01-20T09:03:23.759Z,71.80
2019-01-20T09:05:53.287Z,71.40
2019-01-20T09:08:22.722Z,69.10
2019-01-20T09:10:52.323Z,66.60
2019-01-20T09:13:21.807Z,66.60
2019-01-20T09:15:51.335Z,67.50
2019-01-20T09:18:20.789Z,66.80
2019-01-20T09:20:50.295Z,65.70
2019-01-20T09:23:19.744Z,65.80
2019-01-20T09:25:49.244Z,65.80
2019-01-20T09:28:18.738Z,66.10
2019-01-20T09:30:48.233Z,66.10
2019-01-20T09:33:24.539Z,65.30
2019-01-20T09:35:48.902Z,65.80
2019-01-20T09:38:18.358Z,65.10
2019-01-20T09:40:47.844Z,63.40
2019-01-20T09:43:17.339Z,63.00
2019-01-20T09:45:47.211Z,62.70
2019-01-20T09:48:16.682Z,63.60
2019-01-20T09:50:46.181Z,64.00
2019-01-20T09:53:15.663Z,63.50
2019-01-20T09:55:45.155Z,63.40
2019-01-20T09:58:14.628Z,62.50
2019-01-20T10:00:44.169Z,62.90
2019-01-20T10:03:16.329Z,62.50
2019-01-20T10:05:44.889Z,61.50
2019-01-20T10:08:14.356Z,61.20
2019-01-20T10:10:43.892Z,61.80
2019-01-20T10:13:13.340Z,61.60
2019-01-20T10:15:42.848Z,60.00
2019-01-20T10:18:12.519Z,60.10
2019-01-20T10:20:42.018Z,59.60
2019-01-20T10:23:11.479Z,59.20
2019-01-20T10:25:41.014Z,59.50
2019-01-20T10:28:10.807Z,59.10
2019-01-20T10:30:40.378Z,58.90
2019-01-20T10:33:09.838Z,58.70
2019-01-20T10:35:43.940Z,58.30
2019-01-20T10:38:13.393Z,58.20
2019-01-20T10:40:42.974Z,58.30
2019-01-20T10:43:12.501Z,59.30
2019-01-20T10:45:41.989Z,60.60
2019-01-20T10:48:11.584Z,61.00
2019-01-20T10:50:41.052Z,61.00
2019-01-20T10:53:10.608Z,62.90
2019-01-20T10:55:40.550Z,63.60
2019-01-20T10:58:10.195Z,64.50
2019-01-20T11:00:41.426Z,65.10
2019-01-20T11:03:11.085Z,65.50
2019-01-20T11:05:40.714Z,65.20
2019-01-20T11:08:10.284Z,65.80
2019-01-20T11:10:40.169Z,65.30
2019-01-20T11:13:10.820Z,65.50
2019-01-20T11:15:40.350Z,65.40
2019-01-20T11:18:10.003Z,65.20
2019-01-20T11:20:39.499Z,65.30
2019-01-20T11:23:09.113Z,66.70
2019-01-20T11:25:40.783Z,66.00
2019-01-20T11:28:10.362Z,66.50
2019-01-20T11:30:39.881Z,66.50
2019-01-20T11:33:09.427Z,67.10
2019-01-20T11:35:38.925Z,66.90
2019-01-20T11:38:08.417Z,67.50
2019-01-20T11:40:37.894Z,66.90
2019-01-20T11:43:08.288Z,67.40
2019-01-20T11:45:37.866Z,68.70
2019-01-20T11:48:07.624Z,68.50
2019-01-20T11:50:37.093Z,68.40
2019-01-20T11:53:06.605Z,68.70
2019-01-20T11:55:36.138Z,68.90
2019-01-20T11:58:05.730Z,68.70
2019-01-20T12:00:36.229Z,68.70
2019-01-20T12:03:06.237Z,69.30
2019-01-20T12:05:36.070Z,69.50
2019-01-20T12:08:06.603Z,69.80
2019-01-20T12:10:36.225Z,69.50
2019-01-20T12:13:10.248Z,69.70
2019-01-20T12:15:39.811Z,70.10
2019-01-20T12:18:09.406Z,70.20
2019-01-20T12:20:38.871Z,69.90
2019-01-20T12:23:08.401Z,70.90
2019-01-20T12:25:37.959Z,71.60
2019-01-20T12:28:07.471Z,71.20
2019-01-20T12:30:39.423Z,71.50
2019-01-20T12:33:09.167Z,71.60
2019-01-20T12:35:38.813Z,71.30
2019-01-20T12:38:08.321Z,70.60
2019-01-20T12:40:44.351Z,70.70
2019-01-20T12:43:14.009Z,70.70
2019-01-20T12:45:43.521Z,70.90
2019-01-20T12:48:13.035Z,69.80
2019-01-20T12:50:42.513Z,69.10
2019-01-20T12:53:12.009Z,69.90
2019-01-20T12:55:41.485Z,70.90
2019-01-20T12:58:11.848Z,71.20
2019-01-20T13:00:41.328Z,71.20
2019-01-20T13:03:10.838Z,71.00
2019-01-20T13:05:40.341Z,72.00
2019-01-20T13:08:09.892Z,72.80
2019-01-20T13:10:39.461Z,73.20
2019-01-20T13:13:08.972Z,72.90
2019-01-20T13:15:38.430Z,73.80
2019-01-20T13:18:08.014Z,74.70
2019-01-20T13:20:37.569Z,74.70
2019-01-20T13:23:07.153Z,74.50
2019-01-20T13:25:36.698Z,73.70
2019-01-20T13:28:06.316Z,74.80
2019-01-20T13:30:35.751Z,75.30
2019-01-20T13:33:05.361Z,75.20
2019-01-20T13:35:35.770Z,75.30
2019-01-20T13:38:10.587Z,75.20
2019-01-20T13:40:50.390Z,74.90
2019-01-20T13:43:19.888Z,74.70
2019-01-20T13:45:49.462Z,74.80
2019-01-20T13:48:18.971Z,75.30
2019-01-20T13:50:48.518Z,76.20
2019-01-20T13:53:18.130Z,76.30
2019-01-20T13:55:47.610Z,76.30
2019-01-20T13:58:17.158Z,75.80
2019-01-20T14:00:46.769Z,75.90
2019-01-20T14:03:16.313Z,76.10
2019-01-20T14:05:45.819Z,76.80
2019-01-20T14:08:15.323Z,76.10
2019-01-20T14:10:44.781Z,78.30
2019-01-20T14:13:14.494Z,80.30
2019-01-20T14:15:43.954Z,77.90
2019-01-20T14:18:13.418Z,76.70
2019-01-20T14:20:42.970Z,75.70
2019-01-20T14:23:12.531Z,75.40
2019-01-20T14:25:42.077Z,74.50
2019-01-20T14:28:11.567Z,74.50
2019-01-20T14:30:42.014Z,75.30
2019-01-20T14:33:11.544Z,75.40
2019-01-20T14:35:41.156Z,75.40
2019-01-20T14:38:10.650Z,75.30
2019-01-20T14:40:40.223Z,75.20
2019-01-20T14:43:09.686Z,75.50
2019-01-20T14:45:39.243Z,76.40
2019-01-20T14:48:08.808Z,76.50
2019-01-20T14:50:38.400Z,76.60
2019-01-20T14:53:07.944Z,76.50
2019-01-20T14:55:37.456Z,77.00
2019-01-20T14:58:07.108Z,77.30
2019-01-20T15:00:38.254Z,77.30
2019-01-20T15:03:08.312Z,77.50
2019-01-20T15:05:37.884Z,77.60
2019-01-20T15:08:08.151Z,77.50
2019-01-20T15:10:37.702Z,78.50
2019-01-20T15:13:07.298Z,78.30
2019-01-20T15:15:39.504Z,78.40
2019-01-20T15:18:09.301Z,79.00
2019-01-20T15:20:39.200Z,79.50
2019-01-20T15:23:08.977Z,79.10
2019-01-20T15:25:38.488Z,79.80
2019-01-20T15:28:08.119Z,80.20
2019-01-20T15:30:37.681Z,80.60
2019-01-20T15:33:07.915Z,80.60
2019-01-20T15:35:37.445Z,81.10
2019-01-20T15:38:07.024Z,80.90
2019-01-20T15:40:36.607Z,81.20
2019-01-20T15:43:06.226Z,81.60
2019-01-20T15:45:35.770Z,82.30
2019-01-20T15:48:06.255Z,82.30
2019-01-20T15:50:35.941Z,82.50
2019-01-20T15:53:04.933Z,82.30
2019-01-20T15:55:34.563Z,82.60
2019-01-20T15:58:04.121Z,82.70
2019-01-20T16:00:33.905Z,82.70
2019-01-20T16:03:03.451Z,82.70
2019-01-20T16:05:32.957Z,83.80
2019-01-20T16:08:02.517Z,83.00
2019-01-20T16:10:32.043Z,83.20
2019-01-20T16:13:01.552Z,83.40
2019-01-20T16:15:33.864Z,83.40
2019-01-20T16:18:03.414Z,83.70
2019-01-20T16:20:33.084Z,83.80
2019-01-20T16:23:02.622Z,83.50
2019-01-20T16:25:34.577Z,83.50
2019-01-20T16:28:04.281Z,83.70
2019-01-20T16:30:39.102Z,84.00
2019-01-20T16:33:08.710Z,84.00
2019-01-20T16:35:38.258Z,84.10
2019-01-20T16:38:07.720Z,83.80
2019-01-20T16:40:37.380Z,83.70
2019-01-20T16:43:06.891Z,84.00
2019-01-20T16:45:41.968Z,84.10
2019-01-20T16:48:11.330Z,83.70
2019-01-20T16:50:41.014Z,84.00
2019-01-20T16:53:10.630Z,85.00
2019-01-20T16:55:40.137Z,84.80
2019-01-20T16:58:09.752Z,85.50
2019-01-20T17:00:41.543Z,85.50
2019-01-20T17:03:11.076Z,85.80
2019-01-20T17:05:40.740Z,86.10
2019-01-20T17:08:10.431Z,84.60
2019-01-20T17:10:40.795Z,84.70
2019-01-20T17:13:10.799Z,85.60
2019-01-20T17:15:42.218Z,86.00
2019-01-20T17:18:13.088Z,85.80
2019-01-20T17:20:43.703Z,85.10
2019-01-20T17:23:13.253Z,84.90
2019-01-20T17:25:42.825Z,85.60
2019-01-20T17:28:12.305Z,85.50
2019-01-20T17:30:42.515Z,84.90
2019-01-20T17:33:12.587Z,84.80
2019-01-20T17:35:42.117Z,84.80
2019-01-20T17:38:11.561Z,84.40
2019-01-20T17:40:41.136Z,84.40
2019-01-20T17:43:10.604Z,84.40
2019-01-20T17:45:49.541Z,84.80
2019-01-20T17:48:14.300Z,84.60
2019-01-20T17:50:43.959Z,84.40
2019-01-20T17:53:13.477Z,84.90
2019-01-20T17:55:42.991Z,85.50
2019-01-20T17:58:12.525Z,86.10
2019-01-20T18:00:43.836Z,85.80
2019-01-20T18:03:13.522Z,86.10
2019-01-20T18:05:43.155Z,86.00
2019-01-20T18:08:12.680Z,85.50
2019-01-20T18:10:42.200Z,85.40
2019-01-20T18:13:11.729Z,85.50
2019-01-20T18:15:41.263Z,85.30
2019-01-20T18:18:10.847Z,85.60
2019-01-20T18:20:40.286Z,86.40
2019-01-20T18:23:10.827Z,85.30
2019-01-20T18:25:40.285Z,85.30
2019-01-20T18:28:09.938Z,84.90
2019-01-20T18:30:39.470Z,86.00
2019-01-20T18:33:09.025Z,85.70
2019-01-20T18:35:38.493Z,86.50
2019-01-20T18:38:08.137Z,86.00
2019-01-20T18:40:37.628Z,86.00
2019-01-20T18:43:07.143Z,85.70
2019-01-20T18:45:36.635Z,84.90
2019-01-20T18:48:06.264Z,84.40
2019-01-20T18:50:38.299Z,84.70
2019-01-20T18:53:07.964Z,85.10
2019-01-20T18:55:37.602Z,85.20
2019-01-20T18:58:07.458Z,85.20
2019-01-20T19:00:44.243Z,85.30
2019-01-20T19:03:13.742Z,84.90
2019-01-20T19:05:43.248Z,84.40
2019-01-20T19:08:13.812Z,85.00
2019-01-20T19:10:43.268Z,85.20
2019-01-20T19:13:12.813Z,85.20
2019-01-20T19:15:42.271Z,84.90
2019-01-20T19:18:18.686Z,84.60
2019-01-20T19:20:42.985Z,84.80
2019-01-20T19:23:12.637Z,84.70
2019-01-20T19:25:42.181Z,84.80
2019-01-20T19:28:11.708Z,85.00
2019-01-20T19:30:41.160Z,85.30
2019-01-20T19:33:10.767Z,85.20
2019-01-20T19:35:41.214Z,85.20
2019-01-20T19:38:10.808Z,85.10
2019-01-20T19:40:40.276Z,85.00
2019-01-20T19:43:09.788Z,85.10
2019-01-20T19:45:39.257Z,85.20
2019-01-20T19:48:15.696Z,84.80
2019-01-20T19:50:40.084Z,85.10
2019-01-20T19:53:09.598Z,85.30
2019-01-20T19:55:39.095Z,85.50
2019-01-20T19:58:08.747Z,85.80
2019-01-20T20:00:38.267Z,85.70
2019-01-20T20:03:07.781Z,86.00
2019-01-20T20:05:37.329Z,85.70
2019-01-20T20:08:07.165Z,85.10
2019-01-20T20:10:36.715Z,85.40
2019-01-20T20:13:06.230Z,85.60
2019-01-20T20:15:35.731Z,85.60
2019-01-20T20:18:05.873Z,85.20
2019-01-20T20:20:35.353Z,85.60
2019-01-20T20:23:04.883Z,86.40
2019-01-20T20:25:34.390Z,85.80
2019-01-20T20:28:03.903Z,85.90
2019-01-20T20:30:35.382Z,85.90
2019-01-20T20:33:05.262Z,86.00
2019-01-20T20:35:35.058Z,86.30
2019-01-20T20:38:04.637Z,86.10
2019-01-20T20:40:34.179Z,86.60
2019-01-20T20:43:03.770Z,86.50
2019-01-20T20:45:33.314Z,86.50
2019-01-20T20:48:02.819Z,86.30
2019-01-20T20:50:32.291Z,86.00
2019-01-20T20:53:01.823Z,86.30
2019-01-20T20:55:31.294Z,86.40
2019-01-20T20:58:00.817Z,86.50
2019-01-20T21:00:38.907Z,86.40
2019-01-20T21:03:11.627Z,86.60
2019-01-20T21:05:41.108Z,86.50
2019-01-20T21:08:10.760Z,86.50
2019-01-20T21:10:40.259Z,86.40
2019-01-20T21:13:09.889Z,86.40
2019-01-20T21:15:39.390Z,86.60
2019-01-20T21:18:08.854Z,86.50
2019-01-20T21:20:38.321Z,86.40
2019-01-20T21:23:12.054Z,86.60
2019-01-20T21:25:39.112Z,86.20
2019-01-20T21:28:08.711Z,86.20
2019-01-20T21:30:39.189Z,86.60
2019-01-20T21:33:08.879Z,86.60
2019-01-20T21:35:38.354Z,86.40
2019-01-20T21:38:07.873Z,85.90
2019-01-20T21:40:37.330Z,86.20
2019-01-20T21:43:06.946Z,85.60
2019-01-20T21:45:36.450Z,85.60
2019-01-20T21:48:06.031Z,85.40
2019-01-20T21:50:35.527Z,85.90
2019-01-20T21:53:05.105Z,86.10
2019-01-20T21:55:35.629Z,86.00
2019-01-20T21:58:05.397Z,85.90
2019-01-20T22:00:34.920Z,85.90
2019-01-20T22:03:04.481Z,85.70
2019-01-20T22:05:33.974Z,85.70
2019-01-20T22:08:03.477Z,86.20
2019-01-20T22:10:32.955Z,86.10
2019-01-20T22:13:02.467Z,85.90
2019-01-20T22:15:31.944Z,85.90
2019-01-20T22:18:03.082Z,86.40
2019-01-20T22:20:32.853Z,86.30
2019-01-20T22:23:02.708Z,86.10
2019-01-20T22:25:32.163Z,85.90
2019-01-20T22:28:01.658Z,85.40
2019-01-20T22:30:31.126Z,85.50
2019-01-20T22:33:00.655Z,85.40
2019-01-20T22:35:30.135Z,85.70
2019-01-20T22:37:59.681Z,85.70
2019-01-20T22:40:29.166Z,85.60
2019-01-20T22:42:58.656Z,85.50
2019-01-20T22:45:28.277Z,85.40
2019-01-20T22:47:57.872Z,85.40
2019-01-20T22:50:27.889Z,85.60
2019-01-20T22:52:57.464Z,85.30
2019-01-20T22:55:27.939Z,85.20
2019-01-20T22:57:57.493Z,85.10
2019-01-20T23:00:48.361Z,85.40
2019-01-20T23:03:18.226Z,85.00
2019-01-20T23:05:48.028Z,85.30
2019-01-20T23:08:17.625Z,85.70
2019-01-20T23:10:47.180Z,85.90
2019-01-20T23:13:16.787Z,85.90
2019-01-20T23:15:46.335Z,85.80
2019-01-20T23:18:15.831Z,85.90
2019-01-20T23:20:45.298Z,85.60
2019-01-20T23:23:14.877Z,85.10
2019-01-20T23:25:44.350Z,85.20
2019-01-20T23:28:13.873Z,85.50
2019-01-20T23:30:43.343Z,85.70
2019-01-20T23:33:12.842Z,85.90
2019-01-20T23:35:42.311Z,85.90
2019-01-20T23:38:11.782Z,85.30
2019-01-20T23:40:41.271Z,85.50
2019-01-20T23:43:10.764Z,85.60
2019-01-20T23:45:40.275Z,85.60
2019-01-20T23:48:10.269Z,86.00
2019-01-20T23:50:39.788Z,85.90
2019-01-20T23:53:09.252Z,85.90
2019-01-20T23:55:38.777Z,85.80
2019-01-20T23:58:08.345Z,85.90
